sensor_id;sensor_type;location;lat;lon;timestamp;P1;durP1;ratioP1;P2;durP2;ratioP2
15929;SDS011;8064;51.142;4.780;2024-02-16T00:00:12;3.90;;;1.23;;
15929;SDS011;8064;51.142;4.780;2024-02-16T00:02:39;3.87;;;1.37;;
15929;SDS011;8064;51.142;4.780;2024-02-16T00:05:06;2.73;;;1.20;;
15929;SDS011;8064;51.142;4.780;2024-02-16T00:07:33;4.37;;;1.20;;
15929;SDS011;8064;51.142;4.780;2024-02-16T00:09:59;3.50;;;1.57;;
15929;SDS011;8064;51.142;4.780;2024-02-16T00:12:25;3.33;;;1.27;;
15929;SDS011;8064;51.142;4.780;2024-02-16T00:14:51;4.63;;;1.70;;
15929;SDS011;8064;51.142;4.780;2024-02-16T00:17:16;1.50;;;1.03;;
15929;SDS011;8064;51.142;4.780;2024-02-16T00:19:42;4.60;;;2.30;;
15929;SDS011;8064;51.142;4.780;2024-02-16T00:22:08;2.20;;;1.40;;
15929;SDS011;8064;51.142;4.780;2024-02-16T00:24:34;4.23;;;1.47;;
15929;SDS011;8064;51.142;4.780;2024-02-16T00:27:01;2.83;;;1.20;;
15929;SDS011;8064;51.142;4.780;2024-02-16T00:29:30;1.70;;;1.30;;
15929;SDS011;8064;51.142;4.780;2024-02-16T00:31:57;3.43;;;1.30;;
15929;SDS011;8064;51.142;4.780;2024-02-16T00:34:24;2.63;;;1.20;;
15929;SDS011;8064;51.142;4.780;2024-02-16T00:36:50;2.03;;;1.10;;
15929;SDS011;8064;51.142;4.780;2024-02-16T00:39:17;1.70;;;1.30;;
15929;SDS011;8064;51.142;4.780;2024-02-16T00:41:43;5.33;;;1.60;;
15929;SDS011;8064;51.142;4.780;2024-02-16T00:44:09;2.77;;;1.57;;
15929;SDS011;8064;51.142;4.780;2024-02-16T00:46:35;2.47;;;1.40;;
15929;SDS011;8064;51.142;4.780;2024-02-16T00:49:01;3.33;;;1.60;;
15929;SDS011;8064;51.142;4.780;2024-02-16T00:51:27;2.30;;;1.50;;
15929;SDS011;8064;51.142;4.780;2024-02-16T00:53:52;2.03;;;1.40;;
15929;SDS011;8064;51.142;4.780;2024-02-16T00:56:18;1.90;;;1.40;;
15929;SDS011;8064;51.142;4.780;2024-02-16T00:58:44;2.90;;;1.50;;
15929;SDS011;8064;51.142;4.780;2024-02-16T01:01:10;3.20;;;1.50;;
15929;SDS011;8064;51.142;4.780;2024-02-16T01:03:37;1.83;;;1.10;;
15929;SDS011;8064;51.142;4.780;2024-02-16T01:06:04;2.17;;;1.47;;
15929;SDS011;8064;51.142;4.780;2024-02-16T01:08:30;2.33;;;1.40;;
15929;SDS011;8064;51.142;4.780;2024-02-16T01:10:57;3.77;;;1.50;;
15929;SDS011;8064;51.142;4.780;2024-02-16T01:13:22;1.77;;;1.20;;
15929;SDS011;8064;51.142;4.780;2024-02-16T01:15:48;2.50;;;1.53;;
15929;SDS011;8064;51.142;4.780;2024-02-16T01:18:14;1.90;;;1.47;;
15929;SDS011;8064;51.142;4.780;2024-02-16T01:20:40;2.13;;;1.40;;
15929;SDS011;8064;51.142;4.780;2024-02-16T01:23:06;1.77;;;1.10;;
15929;SDS011;8064;51.142;4.780;2024-02-16T01:25:32;2.63;;;1.37;;
15929;SDS011;8064;51.142;4.780;2024-02-16T01:27:58;3.00;;;1.60;;
15929;SDS011;8064;51.142;4.780;2024-02-16T01:30:24;3.50;;;1.73;;
15929;SDS011;8064;51.142;4.780;2024-02-16T01:32:50;1.97;;;1.40;;
15929;SDS011;8064;51.142;4.780;2024-02-16T01:35:15;3.10;;;1.50;;
15929;SDS011;8064;51.142;4.780;2024-02-16T01:37:41;2.40;;;1.53;;
15929;SDS011;8064;51.142;4.780;2024-02-16T01:40:09;3.80;;;1.67;;
15929;SDS011;8064;51.142;4.780;2024-02-16T01:42:40;2.87;;;1.30;;
15929;SDS011;8064;51.142;4.780;2024-02-16T01:45:07;1.83;;;1.50;;
15929;SDS011;8064;51.142;4.780;2024-02-16T01:47:34;3.87;;;1.50;;
15929;SDS011;8064;51.142;4.780;2024-02-16T01:50:01;2.43;;;1.23;;
15929;SDS011;8064;51.142;4.780;2024-02-16T01:52:27;2.00;;;1.60;;
15929;SDS011;8064;51.142;4.780;2024-02-16T01:54:56;4.03;;;1.67;;
15929;SDS011;8064;51.142;4.780;2024-02-16T01:57:23;3.07;;;1.70;;
15929;SDS011;8064;51.142;4.780;2024-02-16T01:59:49;2.63;;;1.50;;
15929;SDS011;8064;51.142;4.780;2024-02-16T02:02:15;2.20;;;1.47;;
15929;SDS011;8064;51.142;4.780;2024-02-16T02:04:41;2.77;;;1.50;;
15929;SDS011;8064;51.142;4.780;2024-02-16T02:07:13;1.87;;;1.33;;
15929;SDS011;8064;51.142;4.780;2024-02-16T02:09:40;1.67;;;1.30;;
15929;SDS011;8064;51.142;4.780;2024-02-16T02:12:06;2.00;;;1.60;;
15929;SDS011;8064;51.142;4.780;2024-02-16T02:14:32;2.30;;;1.47;;
15929;SDS011;8064;51.142;4.780;2024-02-16T02:16:58;4.30;;;1.40;;
15929;SDS011;8064;51.142;4.780;2024-02-16T02:19:24;2.37;;;1.50;;
15929;SDS011;8064;51.142;4.780;2024-02-16T02:21:50;2.80;;;1.50;;
15929;SDS011;8064;51.142;4.780;2024-02-16T02:24:15;2.87;;;1.60;;
15929;SDS011;8064;51.142;4.780;2024-02-16T02:26:41;3.13;;;1.70;;
15929;SDS011;8064;51.142;4.780;2024-02-16T02:29:07;3.23;;;1.50;;
15929;SDS011;8064;51.142;4.780;2024-02-16T02:31:33;5.03;;;1.73;;
15929;SDS011;8064;51.142;4.780;2024-02-16T02:33:59;2.33;;;1.67;;
15929;SDS011;8064;51.142;4.780;2024-02-16T02:36:25;4.47;;;1.70;;
15929;SDS011;8064;51.142;4.780;2024-02-16T02:38:51;3.90;;;1.60;;
15929;SDS011;8064;51.142;4.780;2024-02-16T02:41:17;2.47;;;1.50;;
15929;SDS011;8064;51.142;4.780;2024-02-16T02:43:44;3.17;;;1.80;;
15929;SDS011;8064;51.142;4.780;2024-02-16T02:46:15;3.47;;;1.67;;
15929;SDS011;8064;51.142;4.780;2024-02-16T02:48:42;1.87;;;1.53;;
15929;SDS011;8064;51.142;4.780;2024-02-16T02:51:11;3.37;;;1.57;;
15929;SDS011;8064;51.142;4.780;2024-02-16T02:53:37;2.80;;;1.70;;
15929;SDS011;8064;51.142;4.780;2024-02-16T02:56:03;2.50;;;1.50;;
15929;SDS011;8064;51.142;4.780;2024-02-16T02:58:29;3.07;;;1.63;;
15929;SDS011;8064;51.142;4.780;2024-02-16T03:00:55;3.83;;;1.73;;
15929;SDS011;8064;51.142;4.780;2024-02-16T03:03:21;2.37;;;1.50;;
15929;SDS011;8064;51.142;4.780;2024-02-16T03:05:47;2.23;;;1.50;;
15929;SDS011;8064;51.142;4.780;2024-02-16T03:08:14;2.53;;;1.40;;
15929;SDS011;8064;51.142;4.780;2024-02-16T03:10:40;1.77;;;1.50;;
15929;SDS011;8064;51.142;4.780;2024-02-16T03:13:06;2.83;;;1.73;;
15929;SDS011;8064;51.142;4.780;2024-02-16T03:15:33;2.40;;;1.70;;
15929;SDS011;8064;51.142;4.780;2024-02-16T03:18:01;2.30;;;1.70;;
15929;SDS011;8064;51.142;4.780;2024-02-16T03:20:27;3.43;;;1.60;;
15929;SDS011;8064;51.142;4.780;2024-02-16T03:22:53;1.70;;;1.20;;
15929;SDS011;8064;51.142;4.780;2024-02-16T03:25:19;5.27;;;1.53;;
15929;SDS011;8064;51.142;4.780;2024-02-16T03:27:45;2.13;;;1.40;;
15929;SDS011;8064;51.142;4.780;2024-02-16T03:30:11;2.53;;;1.67;;
15929;SDS011;8064;51.142;4.780;2024-02-16T03:32:37;4.47;;;1.70;;
15929;SDS011;8064;51.142;4.780;2024-02-16T03:35:02;2.83;;;1.50;;
15929;SDS011;8064;51.142;4.780;2024-02-16T03:37:29;2.40;;;1.70;;
15929;SDS011;8064;51.142;4.780;2024-02-16T03:39:55;4.23;;;1.50;;
15929;SDS011;8064;51.142;4.780;2024-02-16T03:42:21;2.63;;;1.30;;
15929;SDS011;8064;51.142;4.780;2024-02-16T03:44:47;3.47;;;1.40;;
15929;SDS011;8064;51.142;4.780;2024-02-16T03:47:13;2.37;;;1.40;;
15929;SDS011;8064;51.142;4.780;2024-02-16T03:49:39;2.83;;;1.50;;
15929;SDS011;8064;51.142;4.780;2024-02-16T03:52:05;2.57;;;1.50;;
15929;SDS011;8064;51.142;4.780;2024-02-16T03:54:30;2.37;;;1.40;;
15929;SDS011;8064;51.142;4.780;2024-02-16T03:56:57;5.70;;;1.80;;
15929;SDS011;8064;51.142;4.780;2024-02-16T03:59:23;3.50;;;1.70;;
15929;SDS011;8064;51.142;4.780;2024-02-16T04:01:49;2.33;;;1.70;;
15929;SDS011;8064;51.142;4.780;2024-02-16T04:04:15;3.10;;;1.33;;
15929;SDS011;8064;51.142;4.780;2024-02-16T04:06:41;3.53;;;1.97;;
15929;SDS011;8064;51.142;4.780;2024-02-16T04:09:07;2.50;;;1.60;;
15929;SDS011;8064;51.142;4.780;2024-02-16T04:11:33;5.00;;;2.13;;
15929;SDS011;8064;51.142;4.780;2024-02-16T04:14:00;3.13;;;1.57;;
15929;SDS011;8064;51.142;4.780;2024-02-16T04:16:26;2.57;;;1.60;;
15929;SDS011;8064;51.142;4.780;2024-02-16T04:18:53;4.80;;;1.50;;
15929;SDS011;8064;51.142;4.780;2024-02-16T04:21:19;2.93;;;1.70;;
15929;SDS011;8064;51.142;4.780;2024-02-16T04:23:45;4.87;;;1.80;;
15929;SDS011;8064;51.142;4.780;2024-02-16T04:26:11;1.73;;;1.60;;
15929;SDS011;8064;51.142;4.780;2024-02-16T04:28:37;4.03;;;1.80;;
15929;SDS011;8064;51.142;4.780;2024-02-16T04:31:04;2.87;;;1.90;;
15929;SDS011;8064;51.142;4.780;2024-02-16T04:33:31;3.93;;;1.67;;
15929;SDS011;8064;51.142;4.780;2024-02-16T04:35:57;2.40;;;1.40;;
15929;SDS011;8064;51.142;4.780;2024-02-16T04:38:22;3.03;;;1.73;;
15929;SDS011;8064;51.142;4.780;2024-02-16T04:40:48;2.50;;;1.60;;
15929;SDS011;8064;51.142;4.780;2024-02-16T04:43:14;4.57;;;1.57;;
15929;SDS011;8064;51.142;4.780;2024-02-16T04:45:39;2.30;;;1.50;;
15929;SDS011;8064;51.142;4.780;2024-02-16T04:48:05;4.40;;;1.90;;
15929;SDS011;8064;51.142;4.780;2024-02-16T04:50:32;2.63;;;1.70;;
15929;SDS011;8064;51.142;4.780;2024-02-16T04:52:58;5.23;;;1.70;;
15929;SDS011;8064;51.142;4.780;2024-02-16T04:55:26;4.40;;;1.70;;
15929;SDS011;8064;51.142;4.780;2024-02-16T04:57:53;4.13;;;2.70;;
15929;SDS011;8064;51.142;4.780;2024-02-16T05:00:20;2.77;;;1.57;;
15929;SDS011;8064;51.142;4.780;2024-02-16T05:02:46;6.30;;;1.57;;
15929;SDS011;8064;51.142;4.780;2024-02-16T05:05:12;3.47;;;1.77;;
15929;SDS011;8064;51.142;4.780;2024-02-16T05:07:37;7.13;;;1.87;;
15929;SDS011;8064;51.142;4.780;2024-02-16T05:10:07;5.37;;;1.97;;
15929;SDS011;8064;51.142;4.780;2024-02-16T05:12:33;3.17;;;1.80;;
15929;SDS011;8064;51.142;4.780;2024-02-16T05:14:59;4.20;;;1.70;;
15929;SDS011;8064;51.142;4.780;2024-02-16T05:17:25;2.80;;;1.90;;
15929;SDS011;8064;51.142;4.780;2024-02-16T05:19:51;3.30;;;1.90;;
15929;SDS011;8064;51.142;4.780;2024-02-16T05:22:19;2.37;;;1.80;;
15929;SDS011;8064;51.142;4.780;2024-02-16T05:24:46;2.97;;;1.97;;
15929;SDS011;8064;51.142;4.780;2024-02-16T05:27:13;3.27;;;1.80;;
15929;SDS011;8064;51.142;4.780;2024-02-16T05:29:39;2.50;;;1.63;;
15929;SDS011;8064;51.142;4.780;2024-02-16T05:32:05;3.20;;;2.17;;
15929;SDS011;8064;51.142;4.780;2024-02-16T05:34:31;4.50;;;2.03;;
15929;SDS011;8064;51.142;4.780;2024-02-16T05:37:03;2.93;;;1.73;;
15929;SDS011;8064;51.142;4.780;2024-02-16T05:39:31;3.27;;;2.07;;
15929;SDS011;8064;51.142;4.780;2024-02-16T05:42:00;3.37;;;1.90;;
15929;SDS011;8064;51.142;4.780;2024-02-16T05:44:26;3.37;;;2.03;;
15929;SDS011;8064;51.142;4.780;2024-02-16T05:46:52;3.67;;;2.27;;
15929;SDS011;8064;51.142;4.780;2024-02-16T05:49:18;4.83;;;2.30;;
15929;SDS011;8064;51.142;4.780;2024-02-16T05:51:45;4.20;;;1.67;;
15929;SDS011;8064;51.142;4.780;2024-02-16T05:54:30;2.87;;;1.77;;
15929;SDS011;8064;51.142;4.780;2024-02-16T05:56:56;2.30;;;2.00;;
15929;SDS011;8064;51.142;4.780;2024-02-16T05:59:22;3.83;;;1.73;;
15929;SDS011;8064;51.142;4.780;2024-02-16T06:01:50;4.47;;;1.80;;
15929;SDS011;8064;51.142;4.780;2024-02-16T06:04:16;2.87;;;1.77;;
15929;SDS011;8064;51.142;4.780;2024-02-16T06:06:41;3.27;;;1.87;;
15929;SDS011;8064;51.142;4.780;2024-02-16T06:09:07;3.33;;;1.83;;
15929;SDS011;8064;51.142;4.780;2024-02-16T06:11:33;3.23;;;1.73;;
15929;SDS011;8064;51.142;4.780;2024-02-16T06:14:02;4.43;;;2.13;;
15929;SDS011;8064;51.142;4.780;2024-02-16T06:16:28;2.60;;;1.87;;
15929;SDS011;8064;51.142;4.780;2024-02-16T06:18:53;4.90;;;2.10;;
15929;SDS011;8064;51.142;4.780;2024-02-16T06:21:19;3.53;;;1.70;;
15929;SDS011;8064;51.142;4.780;2024-02-16T06:23:45;3.60;;;1.80;;
15929;SDS011;8064;51.142;4.780;2024-02-16T06:26:11;3.77;;;1.90;;
15929;SDS011;8064;51.142;4.780;2024-02-16T06:28:37;4.20;;;2.23;;
15929;SDS011;8064;51.142;4.780;2024-02-16T06:31:03;4.07;;;1.77;;
15929;SDS011;8064;51.142;4.780;2024-02-16T06:33:29;4.43;;;2.10;;
15929;SDS011;8064;51.142;4.780;2024-02-16T06:35:56;3.10;;;1.87;;
15929;SDS011;8064;51.142;4.780;2024-02-16T06:38:23;3.67;;;1.90;;
15929;SDS011;8064;51.142;4.780;2024-02-16T06:40:49;4.57;;;2.07;;
15929;SDS011;8064;51.142;4.780;2024-02-16T06:43:14;2.40;;;1.67;;
15929;SDS011;8064;51.142;4.780;2024-02-16T06:45:40;2.47;;;1.90;;
15929;SDS011;8064;51.142;4.780;2024-02-16T06:48:06;9.87;;;3.13;;
15929;SDS011;8064;51.142;4.780;2024-02-16T06:50:32;6.07;;;4.77;;
15929;SDS011;8064;51.142;4.780;2024-02-16T06:52:57;11.00;;;6.13;;
15929;SDS011;8064;51.142;4.780;2024-02-16T06:55:24;8.77;;;5.83;;
15929;SDS011;8064;51.142;4.780;2024-02-16T06:57:50;6.70;;;4.90;;
15929;SDS011;8064;51.142;4.780;2024-02-16T07:00:16;6.07;;;4.10;;
15929;SDS011;8064;51.142;4.780;2024-02-16T07:02:42;9.53;;;5.43;;
15929;SDS011;8064;51.142;4.780;2024-02-16T07:05:08;8.70;;;5.50;;
15929;SDS011;8064;51.142;4.780;2024-02-16T07:07:34;4.43;;;2.87;;
15929;SDS011;8064;51.142;4.780;2024-02-16T07:10:01;2.73;;;2.10;;
15929;SDS011;8064;51.142;4.780;2024-02-16T07:12:27;6.00;;;2.17;;
15929;SDS011;8064;51.142;4.780;2024-02-16T07:14:53;4.07;;;2.40;;
15929;SDS011;8064;51.142;4.780;2024-02-16T07:17:19;4.67;;;2.30;;
15929;SDS011;8064;51.142;4.780;2024-02-16T07:19:45;6.87;;;2.70;;
15929;SDS011;8064;51.142;4.780;2024-02-16T07:22:10;6.27;;;2.60;;
15929;SDS011;8064;51.142;4.780;2024-02-16T07:24:37;6.23;;;2.57;;
15929;SDS011;8064;51.142;4.780;2024-02-16T07:27:03;6.23;;;2.47;;
15929;SDS011;8064;51.142;4.780;2024-02-16T07:29:29;9.03;;;2.87;;
15929;SDS011;8064;51.142;4.780;2024-02-16T07:31:55;5.90;;;2.73;;
15929;SDS011;8064;51.142;4.780;2024-02-16T07:34:21;5.07;;;2.77;;
15929;SDS011;8064;51.142;4.780;2024-02-16T07:36:47;6.07;;;3.30;;
15929;SDS011;8064;51.142;4.780;2024-02-16T07:39:13;5.50;;;3.10;;
15929;SDS011;8064;51.142;4.780;2024-02-16T07:41:39;6.50;;;3.13;;
15929;SDS011;8064;51.142;4.780;2024-02-16T07:44:04;4.40;;;2.73;;
15929;SDS011;8064;51.142;4.780;2024-02-16T07:46:31;5.37;;;3.23;;
15929;SDS011;8064;51.142;4.780;2024-02-16T07:48:56;5.17;;;3.00;;
15929;SDS011;8064;51.142;4.780;2024-02-16T07:51:23;4.03;;;2.70;;
15929;SDS011;8064;51.142;4.780;2024-02-16T07:53:49;9.53;;;3.97;;
15929;SDS011;8064;51.142;4.780;2024-02-16T07:56:15;6.33;;;3.17;;
15929;SDS011;8064;51.142;4.780;2024-02-16T07:58:41;8.47;;;3.87;;
15929;SDS011;8064;51.142;4.780;2024-02-16T08:01:08;6.47;;;3.33;;
15929;SDS011;8064;51.142;4.780;2024-02-16T08:03:36;4.50;;;3.70;;
15929;SDS011;8064;51.142;4.780;2024-02-16T08:06:02;4.70;;;2.73;;
15929;SDS011;8064;51.142;4.780;2024-02-16T08:08:28;6.00;;;2.83;;
15929;SDS011;8064;51.142;4.780;2024-02-16T08:10:54;4.90;;;3.00;;
15929;SDS011;8064;51.142;4.780;2024-02-16T08:13:20;5.30;;;2.73;;
15929;SDS011;8064;51.142;4.780;2024-02-16T08:15:46;5.93;;;4.77;;
15929;SDS011;8064;51.142;4.780;2024-02-16T08:18:12;8.17;;;3.53;;
15929;SDS011;8064;51.142;4.780;2024-02-16T08:20:38;5.70;;;2.83;;
15929;SDS011;8064;51.142;4.780;2024-02-16T08:23:04;5.57;;;3.23;;
15929;SDS011;8064;51.142;4.780;2024-02-16T08:25:30;7.50;;;3.73;;
15929;SDS011;8064;51.142;4.780;2024-02-16T08:27:58;6.47;;;2.83;;
15929;SDS011;8064;51.142;4.780;2024-02-16T08:30:24;6.20;;;2.73;;
15929;SDS011;8064;51.142;4.780;2024-02-16T08:32:50;5.90;;;3.03;;
15929;SDS011;8064;51.142;4.780;2024-02-16T08:35:16;5.87;;;3.30;;
15929;SDS011;8064;51.142;4.780;2024-02-16T08:37:43;5.47;;;2.83;;
15929;SDS011;8064;51.142;4.780;2024-02-16T08:40:08;7.60;;;3.33;;
15929;SDS011;8064;51.142;4.780;2024-02-16T08:42:39;6.67;;;3.40;;
15929;SDS011;8064;51.142;4.780;2024-02-16T08:45:07;8.37;;;3.10;;
15929;SDS011;8064;51.142;4.780;2024-02-16T08:47:33;5.87;;;2.87;;
15929;SDS011;8064;51.142;4.780;2024-02-16T08:50:00;6.03;;;3.60;;
15929;SDS011;8064;51.142;4.780;2024-02-16T08:52:26;5.53;;;3.20;;
15929;SDS011;8064;51.142;4.780;2024-02-16T08:54:51;6.90;;;3.40;;
15929;SDS011;8064;51.142;4.780;2024-02-16T08:57:17;5.73;;;3.07;;
15929;SDS011;8064;51.142;4.780;2024-02-16T08:59:43;7.40;;;3.73;;
15929;SDS011;8064;51.142;4.780;2024-02-16T09:02:10;7.30;;;3.23;;
15929;SDS011;8064;51.142;4.780;2024-02-16T09:04:36;5.10;;;3.20;;
15929;SDS011;8064;51.142;4.780;2024-02-16T09:07:02;7.13;;;3.50;;
15929;SDS011;8064;51.142;4.780;2024-02-16T09:09:28;8.93;;;3.33;;
15929;SDS011;8064;51.142;4.780;2024-02-16T09:11:53;8.87;;;3.70;;
15929;SDS011;8064;51.142;4.780;2024-02-16T09:14:19;8.07;;;2.70;;
15929;SDS011;8064;51.142;4.780;2024-02-16T09:16:48;7.40;;;3.33;;
15929;SDS011;8064;51.142;4.780;2024-02-16T09:19:16;6.67;;;3.13;;
15929;SDS011;8064;51.142;4.780;2024-02-16T09:21:43;5.23;;;3.40;;
15929;SDS011;8064;51.142;4.780;2024-02-16T09:24:08;5.07;;;3.30;;
15929;SDS011;8064;51.142;4.780;2024-02-16T09:26:35;6.70;;;3.40;;
15929;SDS011;8064;51.142;4.780;2024-02-16T09:29:01;8.00;;;3.50;;
15929;SDS011;8064;51.142;4.780;2024-02-16T09:31:27;7.90;;;3.57;;
15929;SDS011;8064;51.142;4.780;2024-02-16T09:33:53;6.47;;;3.60;;
15929;SDS011;8064;51.142;4.780;2024-02-16T09:36:19;5.53;;;3.63;;
15929;SDS011;8064;51.142;4.780;2024-02-16T09:38:45;9.00;;;4.20;;
15929;SDS011;8064;51.142;4.780;2024-02-16T09:41:10;7.60;;;3.80;;
15929;SDS011;8064;51.142;4.780;2024-02-16T09:43:37;5.63;;;3.57;;
15929;SDS011;8064;51.142;4.780;2024-02-16T09:46:04;6.53;;;3.70;;
15929;SDS011;8064;51.142;4.780;2024-02-16T09:48:30;7.73;;;3.80;;
15929;SDS011;8064;51.142;4.780;2024-02-16T09:50:57;6.90;;;4.07;;
15929;SDS011;8064;51.142;4.780;2024-02-16T09:53:25;6.63;;;4.23;;
15929;SDS011;8064;51.142;4.780;2024-02-16T09:55:52;8.03;;;3.57;;
15929;SDS011;8064;51.142;4.780;2024-02-16T09:58:18;9.70;;;4.37;;
15929;SDS011;8064;51.142;4.780;2024-02-16T10:00:51;8.63;;;3.87;;
15929;SDS011;8064;51.142;4.780;2024-02-16T10:03:24;6.10;;;3.80;;
15929;SDS011;8064;51.142;4.780;2024-02-16T10:05:51;7.27;;;4.17;;
15929;SDS011;8064;51.142;4.780;2024-02-16T10:08:18;10.40;;;4.20;;
15929;SDS011;8064;51.142;4.780;2024-02-16T10:10:44;6.50;;;3.67;;
15929;SDS011;8064;51.142;4.780;2024-02-16T10:13:10;7.20;;;4.23;;
15929;SDS011;8064;51.142;4.780;2024-02-16T10:15:36;10.23;;;4.23;;
15929;SDS011;8064;51.142;4.780;2024-02-16T10:18:03;8.77;;;4.20;;
15929;SDS011;8064;51.142;4.780;2024-02-16T10:20:31;6.10;;;4.00;;
15929;SDS011;8064;51.142;4.780;2024-02-16T10:23:04;7.23;;;3.87;;
15929;SDS011;8064;51.142;4.780;2024-02-16T10:25:31;7.03;;;3.83;;
15929;SDS011;8064;51.142;4.780;2024-02-16T10:27:57;8.73;;;4.20;;
15929;SDS011;8064;51.142;4.780;2024-02-16T10:30:26;7.57;;;4.10;;
15929;SDS011;8064;51.142;4.780;2024-02-16T10:32:56;7.43;;;4.07;;
15929;SDS011;8064;51.142;4.780;2024-02-16T10:35:24;7.40;;;4.23;;
15929;SDS011;8064;51.142;4.780;2024-02-16T10:37:51;8.40;;;4.43;;
15929;SDS011;8064;51.142;4.780;2024-02-16T10:40:19;6.27;;;4.10;;
15929;SDS011;8064;51.142;4.780;2024-02-16T10:42:45;7.93;;;3.80;;
15929;SDS011;8064;51.142;4.780;2024-02-16T10:45:14;7.77;;;4.23;;
15929;SDS011;8064;51.142;4.780;2024-02-16T10:47:40;8.23;;;3.80;;
15929;SDS011;8064;51.142;4.780;2024-02-16T10:50:06;7.43;;;3.80;;
15929;SDS011;8064;51.142;4.780;2024-02-16T10:52:34;7.53;;;3.90;;
15929;SDS011;8064;51.142;4.780;2024-02-16T10:55:01;8.23;;;4.37;;
15929;SDS011;8064;51.142;4.780;2024-02-16T10:57:29;7.17;;;3.70;;
15929;SDS011;8064;51.142;4.780;2024-02-16T10:59:56;8.70;;;4.30;;
15929;SDS011;8064;51.142;4.780;2024-02-16T11:02:24;6.50;;;4.17;;
15929;SDS011;8064;51.142;4.780;2024-02-16T11:04:51;7.97;;;4.17;;
15929;SDS011;8064;51.142;4.780;2024-02-16T11:07:18;7.80;;;4.47;;
15929;SDS011;8064;51.142;4.780;2024-02-16T11:09:45;8.77;;;4.70;;
15929;SDS011;8064;51.142;4.780;2024-02-16T11:12:13;8.53;;;4.50;;
15929;SDS011;8064;51.142;4.780;2024-02-16T11:17:09;9.03;;;4.47;;
15929;SDS011;8064;51.142;4.780;2024-02-16T11:19:36;7.40;;;4.37;;
15929;SDS011;8064;51.142;4.780;2024-02-16T11:22:05;6.57;;;4.30;;
15929;SDS011;8064;51.142;4.780;2024-02-16T11:24:34;5.73;;;4.40;;
15929;SDS011;8064;51.142;4.780;2024-02-16T11:27:01;8.50;;;4.33;;
15929;SDS011;8064;51.142;4.780;2024-02-16T11:29:30;10.60;;;5.37;;
15929;SDS011;8064;51.142;4.780;2024-02-16T11:31:58;7.33;;;4.50;;
15929;SDS011;8064;51.142;4.780;2024-02-16T11:34:25;7.87;;;4.57;;
15929;SDS011;8064;51.142;4.780;2024-02-16T11:36:53;9.97;;;5.03;;
15929;SDS011;8064;51.142;4.780;2024-02-16T11:39:19;11.37;;;5.00;;
15929;SDS011;8064;51.142;4.780;2024-02-16T11:41:46;9.57;;;4.87;;
15929;SDS011;8064;51.142;4.780;2024-02-16T11:44:13;8.53;;;4.30;;
15929;SDS011;8064;51.142;4.780;2024-02-16T11:46:41;8.83;;;4.77;;
15929;SDS011;8064;51.142;4.780;2024-02-16T11:49:08;7.17;;;4.60;;
15929;SDS011;8064;51.142;4.780;2024-02-16T11:51:35;4.83;;;4.10;;
15929;SDS011;8064;51.142;4.780;2024-02-16T11:54:01;5.17;;;4.67;;
15929;SDS011;8064;51.142;4.780;2024-02-16T11:56:27;9.83;;;4.60;;
15929;SDS011;8064;51.142;4.780;2024-02-16T11:58:54;5.87;;;4.27;;
15929;SDS011;8064;51.142;4.780;2024-02-16T12:01:21;6.80;;;4.47;;
15929;SDS011;8064;51.142;4.780;2024-02-16T12:03:46;6.07;;;4.27;;
15929;SDS011;8064;51.142;4.780;2024-02-16T12:06:19;7.50;;;4.73;;
15929;SDS011;8064;51.142;4.780;2024-02-16T12:08:47;7.93;;;5.30;;
15929;SDS011;8064;51.142;4.780;2024-02-16T12:11:12;5.20;;;4.30;;
15929;SDS011;8064;51.142;4.780;2024-02-16T12:13:39;7.50;;;4.80;;
15929;SDS011;8064;51.142;4.780;2024-02-16T12:16:05;6.63;;;4.90;;
15929;SDS011;8064;51.142;4.780;2024-02-16T12:18:32;5.43;;;4.60;;
15929;SDS011;8064;51.142;4.780;2024-02-16T12:20:58;6.13;;;5.53;;
15929;SDS011;8064;51.142;4.780;2024-02-16T12:23:24;6.63;;;5.50;;
15929;SDS011;8064;51.142;4.780;2024-02-16T12:25:50;5.87;;;5.23;;
15929;SDS011;8064;51.142;4.780;2024-02-16T12:28:15;7.23;;;5.70;;
15929;SDS011;8064;51.142;4.780;2024-02-16T12:30:41;6.20;;;5.60;;
15929;SDS011;8064;51.142;4.780;2024-02-16T12:33:07;6.23;;;5.33;;
15929;SDS011;8064;51.142;4.780;2024-02-16T12:35:33;6.67;;;5.40;;
15929;SDS011;8064;51.142;4.780;2024-02-16T12:37:59;7.90;;;4.97;;
15929;SDS011;8064;51.142;4.780;2024-02-16T12:40:25;5.30;;;4.70;;
15929;SDS011;8064;51.142;4.780;2024-02-16T12:42:52;6.27;;;5.27;;
15929;SDS011;8064;51.142;4.780;2024-02-16T12:45:17;6.33;;;5.73;;
15929;SDS011;8064;51.142;4.780;2024-02-16T12:47:44;6.47;;;5.87;;
15929;SDS011;8064;51.142;4.780;2024-02-16T12:50:10;6.30;;;5.67;;
15929;SDS011;8064;51.142;4.780;2024-02-16T12:52:36;6.00;;;5.40;;
15929;SDS011;8064;51.142;4.780;2024-02-16T12:55:03;8.20;;;5.80;;
15929;SDS011;8064;51.142;4.780;2024-02-16T12:57:31;6.40;;;5.63;;
15929;SDS011;8064;51.142;4.780;2024-02-16T12:59:56;6.57;;;5.80;;
15929;SDS011;8064;51.142;4.780;2024-02-16T13:02:22;7.37;;;6.53;;
15929;SDS011;8064;51.142;4.780;2024-02-16T13:04:48;6.83;;;6.20;;
15929;SDS011;8064;51.142;4.780;2024-02-16T13:07:14;6.60;;;6.00;;
15929;SDS011;8064;51.142;4.780;2024-02-16T13:09:39;6.73;;;6.03;;
15929;SDS011;8064;51.142;4.780;2024-02-16T13:12:07;5.93;;;5.43;;
15929;SDS011;8064;51.142;4.780;2024-02-16T13:14:33;6.90;;;6.20;;
15929;SDS011;8064;51.142;4.780;2024-02-16T13:16:58;6.70;;;6.10;;
15929;SDS011;8064;51.142;4.780;2024-02-16T13:19:24;6.70;;;5.97;;
15929;SDS011;8064;51.142;4.780;2024-02-16T13:21:50;6.70;;;6.03;;
15929;SDS011;8064;51.142;4.780;2024-02-16T13:24:16;5.33;;;4.90;;
15929;SDS011;8064;51.142;4.780;2024-02-16T13:26:41;4.70;;;4.13;;
15929;SDS011;8064;51.142;4.780;2024-02-16T13:29:07;5.67;;;4.20;;
15929;SDS011;8064;51.142;4.780;2024-02-16T13:31:33;5.83;;;4.27;;
15929;SDS011;8064;51.142;4.780;2024-02-16T13:33:59;4.50;;;4.10;;
15929;SDS011;8064;51.142;4.780;2024-02-16T13:36:26;4.37;;;3.53;;
15929;SDS011;8064;51.142;4.780;2024-02-16T13:38:51;4.40;;;3.43;;
15929;SDS011;8064;51.142;4.780;2024-02-16T13:41:18;3.83;;;3.30;;
15929;SDS011;8064;51.142;4.780;2024-02-16T13:43:43;3.80;;;3.40;;
15929;SDS011;8064;51.142;4.780;2024-02-16T13:46:09;3.50;;;3.20;;
15929;SDS011;8064;51.142;4.780;2024-02-16T13:48:35;4.00;;;3.50;;
15929;SDS011;8064;51.142;4.780;2024-02-16T13:51:02;4.23;;;3.93;;
15929;SDS011;8064;51.142;4.780;2024-02-16T13:53:30;3.70;;;3.40;;
15929;SDS011;8064;51.142;4.780;2024-02-16T13:55:56;3.67;;;3.20;;
15929;SDS011;8064;51.142;4.780;2024-02-16T13:58:25;3.83;;;3.53;;
15929;SDS011;8064;51.142;4.780;2024-02-16T14:00:51;3.77;;;3.37;;
15929;SDS011;8064;51.142;4.780;2024-02-16T14:03:18;3.90;;;3.50;;
15929;SDS011;8064;51.142;4.780;2024-02-16T14:05:44;3.57;;;3.27;;
15929;SDS011;8064;51.142;4.780;2024-02-16T14:08:12;3.60;;;3.30;;
15929;SDS011;8064;51.142;4.780;2024-02-16T14:10:40;3.60;;;3.30;;
15929;SDS011;8064;51.142;4.780;2024-02-16T14:13:05;4.60;;;3.30;;
15929;SDS011;8064;51.142;4.780;2024-02-16T14:15:31;4.50;;;3.80;;
15929;SDS011;8064;51.142;4.780;2024-02-16T14:17:57;5.03;;;4.33;;
15929;SDS011;8064;51.142;4.780;2024-02-16T14:20:23;4.93;;;4.07;;
15929;SDS011;8064;51.142;4.780;2024-02-16T14:22:49;6.33;;;5.10;;
15929;SDS011;8064;51.142;4.780;2024-02-16T14:25:15;4.77;;;4.37;;
15929;SDS011;8064;51.142;4.780;2024-02-16T14:27:40;6.63;;;4.87;;
15929;SDS011;8064;51.142;4.780;2024-02-16T14:30:07;4.60;;;4.20;;
15929;SDS011;8064;51.142;4.780;2024-02-16T14:32:33;4.77;;;4.10;;
15929;SDS011;8064;51.142;4.780;2024-02-16T14:34:59;4.30;;;3.90;;
15929;SDS011;8064;51.142;4.780;2024-02-16T14:37:25;4.77;;;4.13;;
15929;SDS011;8064;51.142;4.780;2024-02-16T14:39:53;4.53;;;4.13;;
15929;SDS011;8064;51.142;4.780;2024-02-16T14:42:23;4.03;;;3.40;;
15929;SDS011;8064;51.142;4.780;2024-02-16T14:44:49;4.40;;;3.90;;
15929;SDS011;8064;51.142;4.780;2024-02-16T14:47:15;4.10;;;3.70;;
15929;SDS011;8064;51.142;4.780;2024-02-16T14:49:41;4.10;;;3.70;;
15929;SDS011;8064;51.142;4.780;2024-02-16T14:52:07;3.60;;;3.30;;
15929;SDS011;8064;51.142;4.780;2024-02-16T14:54:34;4.13;;;3.80;;
15929;SDS011;8064;51.142;4.780;2024-02-16T14:57:00;4.63;;;3.80;;